createdAt,value
2022-11-13T00:02:24.777Z,6.10
2022-11-13T00:05:15.909Z,2.95
2022-11-13T00:08:06.912Z,2.42
2022-11-13T00:11:03.470Z,3.92
2022-11-13T00:13:54.397Z,3.90
2022-11-13T00:16:45.418Z,3.65
2022-11-13T00:19:36.798Z,3.60
2022-11-13T00:22:27.618Z,3.42
2022-11-13T00:25:18.841Z,3.20
2022-11-13T00:28:10.609Z,3.95
2022-11-13T00:31:02.765Z,4.15
2022-11-13T00:37:04.610Z,8.07
2022-11-13T00:39:59.633Z,6.00
2022-11-13T00:42:50.756Z,3.10
2022-11-13T00:45:42.309Z,3.72
2022-11-13T00:48:33.344Z,5.07
2022-11-13T00:51:24.241Z,3.88
2022-11-13T00:54:15.279Z,5.20
2022-11-13T00:57:06.277Z,5.28
2022-11-13T00:59:57.202Z,7.38
2022-11-13T01:02:48.862Z,4.28
2022-11-13T01:05:41.576Z,5.20
2022-11-13T01:08:32.540Z,5.63
2022-11-13T01:11:25.448Z,6.80
2022-11-13T01:14:16.466Z,6.85
2022-11-13T01:17:07.632Z,5.68
2022-11-13T01:19:59.130Z,4.78
2022-11-13T01:22:49.951Z,4.57
2022-11-13T01:25:40.865Z,4.93
2022-11-13T01:28:32.069Z,4.10
2022-11-13T01:31:26.080Z,3.45
2022-11-13T01:34:17.446Z,3.10
2022-11-13T01:37:09.120Z,3.63
2022-11-13T01:39:59.961Z,4.00
2022-11-13T01:42:50.920Z,4.65
2022-11-13T01:46:13.925Z,4.07
2022-11-13T01:49:20.532Z,4.38
2022-11-13T01:52:15.461Z,5.38
2022-11-13T01:55:10.533Z,4.88
2022-11-13T01:58:02.475Z,3.05
2022-11-13T02:00:53.279Z,5.82
2022-11-13T02:03:44.278Z,4.05
2022-11-13T02:06:40.659Z,2.58
2022-11-13T02:09:35.916Z,3.67
2022-11-13T02:12:34.174Z,4.18
2022-11-13T02:15:28.085Z,3.33
2022-11-13T02:18:22.107Z,3.13
2022-11-13T02:21:28.546Z,2.92
2022-11-13T02:24:24.485Z,3.47
2022-11-13T02:27:21.103Z,3.88
2022-11-13T02:30:19.807Z,2.75
2022-11-13T02:33:25.341Z,3.47
2022-11-13T02:36:18.238Z,3.28
2022-11-13T02:39:12.788Z,2.72
2022-11-13T02:42:04.404Z,3.55
2022-11-13T02:44:55.601Z,4.32
2022-11-13T02:47:46.802Z,5.47
2022-11-13T02:50:38.272Z,4.72
2022-11-13T02:53:29.219Z,5.10
2022-11-13T02:56:20.281Z,4.47
2022-11-13T02:59:11.942Z,4.90
2022-11-13T03:02:02.759Z,4.75
2022-11-13T03:08:06.195Z,10.00
2022-11-13T03:10:56.957Z,9.02
2022-11-13T03:13:48.040Z,7.68
2022-11-13T03:16:39.759Z,7.20
2022-11-13T03:19:30.476Z,7.82
2022-11-13T03:22:21.583Z,5.15
2022-11-13T03:25:12.585Z,5.18
2022-11-13T03:28:03.713Z,5.43
2022-11-13T03:30:55.054Z,6.47
2022-11-13T03:33:46.786Z,6.22
2022-11-13T03:36:37.869Z,6.03
2022-11-13T03:39:28.782Z,5.78
2022-11-13T03:42:19.696Z,6.07
2022-11-13T03:45:10.556Z,7.07
2022-11-13T03:48:01.407Z,5.25
2022-11-13T03:50:54.741Z,5.82
2022-11-13T03:53:45.794Z,4.85
2022-11-13T03:56:36.703Z,5.57
2022-11-13T03:59:27.705Z,4.68
2022-11-13T04:02:18.642Z,5.00
2022-11-13T04:05:09.779Z,4.80
2022-11-13T04:08:01.389Z,3.25
2022-11-13T04:10:52.429Z,3.97
2022-11-13T04:13:43.370Z,4.03
2022-11-13T04:16:34.459Z,4.20
2022-11-13T04:19:25.509Z,4.15
2022-11-13T04:22:16.658Z,5.88
2022-11-13T04:25:09.017Z,4.82
2022-11-13T04:28:00.087Z,4.85
2022-11-13T04:30:53.070Z,4.70
2022-11-13T04:33:44.058Z,4.53
2022-11-13T04:36:35.157Z,5.78
2022-11-13T04:39:26.077Z,5.13
2022-11-13T04:42:36.411Z,3.35
2022-11-13T04:45:27.492Z,3.97
2022-11-13T04:48:18.276Z,4.63
2022-11-13T04:51:09.452Z,5.40
2022-11-13T04:54:00.597Z,4.65
2022-11-13T04:56:51.681Z,7.53
2022-11-13T04:59:43.369Z,5.65
2022-11-13T05:02:34.786Z,5.00
2022-11-13T05:05:25.730Z,7.20
2022-11-13T05:08:16.866Z,8.68
2022-11-13T05:11:07.871Z,6.82
2022-11-13T05:14:03.233Z,7.32
2022-11-13T05:16:55.152Z,7.03
2022-11-13T05:19:45.959Z,7.85
2022-11-13T05:22:37.061Z,6.55
2022-11-13T05:25:28.053Z,7.20
2022-11-13T05:28:19.114Z,18.00
2022-11-13T05:31:12.756Z,13.60
2022-11-13T05:34:06.148Z,15.52
2022-11-13T05:36:57.470Z,14.63
2022-11-13T05:39:48.526Z,13.20
2022-11-13T05:42:39.640Z,10.48
2022-11-13T05:45:30.677Z,8.60
2022-11-13T05:48:21.547Z,8.85
2022-11-13T05:51:15.323Z,8.45
2022-11-13T05:54:06.337Z,8.43
2022-11-13T05:56:57.364Z,7.32
2022-11-13T05:59:48.462Z,6.68
2022-11-13T06:02:39.542Z,8.02
2022-11-13T06:05:30.546Z,8.43
2022-11-13T06:08:22.053Z,13.00
2022-11-13T06:11:14.600Z,13.70
2022-11-13T06:14:05.641Z,17.45
2022-11-13T06:16:56.806Z,9.48
2022-11-13T06:19:47.912Z,5.78
2022-11-13T06:22:38.646Z,6.10
2022-11-13T06:25:30.295Z,7.95
2022-11-13T06:28:21.186Z,5.97
2022-11-13T06:31:14.552Z,7.97
2022-11-13T06:34:05.820Z,7.72
2022-11-13T06:36:56.350Z,5.75
2022-11-13T06:39:47.265Z,7.85
2022-11-13T06:42:39.415Z,7.13
2022-11-13T06:45:30.265Z,8.98
2022-11-13T06:48:21.668Z,8.27
2022-11-13T06:51:15.067Z,8.50
2022-11-13T06:54:06.214Z,8.13
2022-11-13T06:56:57.250Z,7.35
2022-11-13T06:59:49.089Z,14.25
2022-11-13T07:02:39.699Z,15.50
2022-11-13T07:05:30.797Z,13.27
2022-11-13T07:08:21.889Z,12.57
2022-11-13T07:11:15.336Z,12.65
2022-11-13T07:14:06.423Z,17.63
2022-11-13T07:17:09.211Z,19.13
2022-11-13T07:20:00.936Z,11.68
2022-11-13T07:22:55.127Z,11.57
2022-11-13T07:25:46.417Z,12.57
2022-11-13T07:28:37.571Z,10.90
2022-11-13T07:31:28.342Z,10.45
2022-11-13T07:34:20.004Z,11.43
2022-11-13T07:37:11.047Z,10.77
2022-11-13T07:40:01.958Z,6.57
2022-11-13T07:42:59.622Z,5.57
2022-11-13T07:45:53.904Z,6.70
2022-11-13T07:48:44.505Z,4.57
2022-11-13T07:51:36.248Z,5.18
2022-11-13T07:54:27.028Z,5.10
2022-11-13T07:57:18.253Z,4.38
2022-11-13T08:00:10.437Z,5.13
2022-11-13T08:03:05.929Z,4.15
2022-11-13T08:06:01.440Z,3.80
2022-11-13T08:08:53.055Z,2.92
2022-11-13T08:11:44.026Z,4.38
2022-11-13T08:14:35.013Z,3.95
2022-11-13T08:17:25.998Z,3.55
2022-11-13T08:20:17.264Z,3.85
2022-11-13T08:23:09.301Z,4.20
2022-11-13T08:26:05.045Z,4.28
2022-11-13T08:28:56.121Z,4.25
2022-11-13T08:31:47.136Z,5.65
2022-11-13T08:34:37.993Z,4.00
2022-11-13T08:37:28.990Z,4.57
2022-11-13T08:40:20.118Z,3.35
2022-11-13T08:43:11.709Z,4.00
2022-11-13T08:46:02.509Z,3.60
2022-11-13T08:48:53.613Z,3.67
2022-11-13T08:51:44.734Z,4.13
2022-11-13T08:54:35.662Z,3.28
2022-11-13T08:57:26.641Z,4.43
2022-11-13T09:00:18.865Z,4.30
2022-11-13T09:03:11.477Z,3.50
2022-11-13T09:06:05.448Z,4.57
2022-11-13T09:08:56.544Z,4.47
2022-11-13T09:11:47.763Z,4.68
2022-11-13T09:14:38.800Z,4.38
2022-11-13T09:17:30.572Z,5.22
2022-11-13T09:20:23.102Z,3.90
2022-11-13T09:23:14.433Z,4.18
2022-11-13T09:26:05.666Z,5.57
2022-11-13T09:28:56.701Z,5.22
2022-11-13T09:31:47.727Z,4.30
2022-11-13T09:34:39.469Z,4.18
2022-11-13T09:37:31.982Z,5.32
2022-11-13T09:40:28.714Z,5.05
2022-11-13T09:43:28.672Z,4.82
2022-11-13T09:46:25.834Z,4.38
2022-11-13T09:49:19.087Z,4.05
2022-11-13T09:52:14.914Z,5.68
2022-11-13T09:55:10.062Z,3.55
2022-11-13T09:58:07.272Z,4.65
2022-11-13T10:01:00.818Z,4.63
2022-11-13T10:04:03.943Z,4.25
2022-11-13T10:07:09.377Z,5.32
2022-11-13T10:10:40.758Z,5.10
2022-11-13T10:13:39.177Z,4.57
2022-11-13T10:16:33.927Z,4.38
2022-11-13T10:19:31.849Z,4.55
2022-11-13T10:22:34.364Z,5.70
2022-11-13T10:25:32.026Z,5.78
2022-11-13T10:31:45.842Z,4.85
2022-11-13T10:34:36.685Z,5.05
2022-11-13T10:37:44.166Z,5.90
2022-11-13T10:40:37.772Z,5.53
2022-11-13T10:43:28.831Z,6.75
2022-11-13T10:46:23.713Z,6.25
2022-11-13T10:49:19.489Z,5.57
2022-11-13T10:52:19.485Z,5.75
2022-11-13T10:55:17.706Z,6.22
2022-11-13T10:58:14.941Z,7.03
2022-11-13T11:01:13.952Z,7.45
2022-11-13T11:04:05.760Z,7.10
2022-11-13T11:07:20.294Z,6.10
2022-11-13T11:10:22.419Z,5.53
2022-11-13T11:13:22.726Z,5.95
2022-11-13T11:16:19.605Z,5.20
2022-11-13T11:19:14.368Z,5.75
2022-11-13T11:22:13.067Z,5.50
2022-11-13T11:25:11.040Z,6.55
2022-11-13T11:28:07.176Z,6.30
2022-11-13T11:31:09.443Z,5.60
2022-11-13T11:34:09.760Z,7.18
2022-11-13T11:37:06.605Z,5.72
2022-11-13T11:40:03.458Z,6.50
2022-11-13T11:43:03.693Z,5.72
2022-11-13T11:45:54.708Z,5.70
2022-11-13T11:48:46.514Z,7.63
2022-11-13T11:51:50.713Z,5.70
2022-11-13T11:54:43.394Z,5.57
2022-11-13T11:57:46.087Z,6.32
2022-11-13T12:00:45.247Z,6.55
2022-11-13T12:03:59.919Z,6.18
2022-11-13T12:07:04.986Z,6.63
2022-11-13T12:10:24.209Z,6.60
2022-11-13T12:13:28.079Z,5.05
2022-11-13T12:16:27.601Z,5.35
2022-11-13T12:19:29.749Z,6.38
2022-11-13T12:22:30.568Z,7.88
2022-11-13T12:25:27.742Z,6.65
2022-11-13T12:28:25.430Z,6.32
2022-11-13T12:31:38.268Z,6.45
2022-11-13T12:34:35.766Z,6.63
2022-11-13T12:37:33.848Z,6.50
2022-11-13T12:40:31.759Z,6.78
2022-11-13T12:43:47.692Z,7.07
2022-11-13T12:46:40.364Z,6.85
2022-11-13T12:49:34.345Z,7.40
2022-11-13T12:52:25.502Z,6.68
2022-11-13T12:55:26.525Z,5.95
2022-11-13T12:58:24.129Z,6.70
2022-11-13T13:01:19.132Z,5.78
2022-11-13T13:04:43.279Z,5.97
2022-11-13T13:07:56.175Z,7.43
2022-11-13T13:11:09.719Z,6.97
2022-11-13T13:14:25.121Z,7.22
2022-11-13T13:17:19.625Z,7.10
2022-11-13T13:20:30.246Z,6.93
2022-11-13T13:23:27.498Z,5.70
2022-11-13T13:26:20.600Z,6.63
2022-11-13T13:29:17.946Z,5.70
2022-11-13T13:32:20.624Z,7.00
2022-11-13T13:35:17.100Z,6.07
2022-11-13T13:38:17.580Z,5.55
2022-11-13T13:41:19.783Z,7.57
2022-11-13T13:44:48.952Z,7.00
2022-11-13T13:47:44.584Z,6.22
2022-11-13T13:50:43.390Z,6.45
2022-11-13T13:53:36.432Z,6.75
2022-11-13T13:56:27.194Z,7.95
2022-11-13T13:59:20.765Z,7.72
2022-11-13T14:02:17.100Z,5.57
2022-11-13T14:05:23.499Z,6.55
2022-11-13T14:08:18.361Z,6.40
2022-11-13T14:11:20.817Z,6.85
2022-11-13T14:14:18.293Z,6.30
2022-11-13T14:17:11.096Z,6.38
2022-11-13T14:20:02.037Z,6.00
2022-11-13T14:22:56.485Z,6.40
2022-11-13T14:25:48.803Z,5.38
2022-11-13T14:28:53.154Z,6.90
2022-11-13T14:31:45.274Z,6.18
2022-11-13T14:34:37.694Z,7.53
2022-11-13T14:37:32.789Z,6.65
2022-11-13T14:40:26.749Z,6.63
2022-11-13T14:43:24.747Z,6.68
2022-11-13T14:46:27.307Z,6.22
2022-11-13T14:49:27.174Z,6.47
2022-11-13T14:52:23.508Z,6.75
2022-11-13T14:55:22.520Z,5.85
2022-11-13T14:58:13.671Z,6.55
2022-11-13T15:01:15.945Z,7.15
2022-11-13T15:04:07.602Z,6.57
2022-11-13T15:07:00.901Z,6.65
2022-11-13T15:09:52.586Z,7.10
2022-11-13T15:12:43.311Z,6.80
2022-11-13T15:15:34.222Z,10.68
2022-11-13T15:18:25.724Z,8.18
2022-11-13T15:21:17.904Z,8.10
2022-11-13T15:24:10.643Z,8.15
2022-11-13T15:27:01.722Z,6.28
2022-11-13T15:29:52.714Z,6.35
2022-11-13T15:32:44.122Z,6.18
2022-11-13T15:35:35.236Z,5.65
2022-11-13T15:38:27.094Z,6.45
2022-11-13T15:41:20.141Z,6.63
2022-11-13T15:44:14.697Z,6.32
2022-11-13T15:47:18.877Z,7.20
2022-11-13T15:50:13.844Z,6.25
2022-11-13T15:53:08.363Z,7.40
2022-11-13T15:56:02.502Z,6.45
2022-11-13T15:58:53.470Z,7.00
2022-11-13T16:01:44.646Z,7.40
2022-11-13T16:04:55.018Z,7.93
2022-11-13T16:07:46.925Z,8.32
2022-11-13T16:10:37.783Z,7.53
2022-11-13T16:13:29.778Z,6.68
2022-11-13T16:16:23.461Z,9.90
2022-11-13T16:19:21.992Z,10.27
2022-11-13T16:22:17.516Z,9.63
2022-11-13T16:25:11.321Z,8.27
2022-11-13T16:28:02.649Z,5.90
2022-11-13T16:30:54.621Z,8.00
2022-11-13T16:33:45.743Z,7.40
2022-11-13T16:36:37.132Z,8.80
2022-11-13T16:39:28.375Z,7.15
2022-11-13T16:42:19.437Z,6.97
2022-11-13T16:45:10.521Z,8.15
2022-11-13T16:48:02.294Z,7.38
2022-11-13T16:50:52.922Z,6.60
2022-11-13T16:53:43.939Z,7.57
2022-11-13T16:56:34.941Z,21.13
2022-11-13T16:59:26.051Z,15.32
2022-11-13T17:02:18.459Z,24.73
2022-11-13T17:05:13.166Z,26.73
2022-11-13T17:08:05.346Z,28.10
2022-11-13T17:10:56.538Z,23.90
2022-11-13T17:13:49.493Z,23.27
2022-11-13T17:16:40.522Z,20.88
2022-11-13T17:19:31.688Z,22.88
2022-11-13T17:22:23.239Z,16.58
2022-11-13T17:25:15.962Z,12.93
2022-11-13T17:28:10.997Z,12.23
2022-11-13T17:31:03.211Z,25.13
2022-11-13T17:33:54.760Z,28.77
2022-11-13T17:36:45.826Z,28.67
2022-11-13T17:39:37.554Z,33.65
2022-11-13T17:42:28.797Z,33.55
2022-11-13T17:45:19.683Z,38.92
2022-11-13T17:48:10.650Z,49.25
2022-11-13T17:51:03.898Z,49.63
2022-11-13T17:53:56.457Z,57.05
2022-11-13T17:56:47.964Z,58.33
2022-11-13T17:59:40.502Z,49.90
2022-11-13T18:02:31.729Z,47.90
2022-11-13T18:05:22.764Z,46.08
2022-11-13T18:08:13.830Z,52.72
2022-11-13T18:11:08.841Z,51.33
2022-11-13T18:14:00.410Z,48.47
2022-11-13T18:16:51.502Z,44.88
2022-11-13T18:19:42.589Z,44.00
2022-11-13T18:22:33.626Z,41.38
2022-11-13T18:25:24.963Z,44.50
2022-11-13T18:28:16.701Z,46.28
2022-11-13T18:31:10.447Z,44.80
2022-11-13T18:34:03.482Z,39.20
2022-11-13T18:36:54.544Z,40.08
2022-11-13T18:39:45.858Z,45.45
2022-11-13T18:42:36.887Z,41.60
2022-11-13T18:45:27.800Z,42.33
2022-11-13T18:48:19.634Z,41.60
2022-11-13T18:51:13.972Z,39.60
2022-11-13T18:54:09.721Z,36.83
2022-11-13T18:57:00.893Z,36.55
2022-11-13T18:59:51.838Z,41.17
2022-11-13T19:02:42.993Z,41.67
2022-11-13T19:05:34.450Z,42.40
2022-11-13T19:08:25.788Z,39.75
2022-11-13T19:11:17.997Z,41.00
2022-11-13T19:14:10.331Z,38.55
2022-11-13T19:17:01.417Z,35.97
2022-11-13T19:19:52.364Z,36.63
2022-11-13T19:22:44.210Z,38.58
2022-11-13T19:25:35.246Z,40.08
2022-11-13T19:28:26.808Z,39.40
2022-11-13T19:31:19.593Z,34.72
2022-11-13T19:34:11.583Z,36.38
2022-11-13T19:37:03.052Z,39.38
2022-11-13T19:39:54.772Z,42.38
2022-11-13T19:42:45.378Z,49.60
2022-11-13T19:45:36.482Z,50.75
2022-11-13T19:48:27.421Z,40.65
2022-11-13T19:51:21.358Z,46.13
2022-11-13T19:54:12.298Z,43.03
2022-11-13T19:57:03.854Z,37.63
2022-11-13T19:59:54.606Z,34.38
2022-11-13T20:02:45.898Z,33.20
2022-11-13T20:05:40.196Z,29.42
2022-11-13T20:08:33.209Z,27.52
2022-11-13T20:11:24.222Z,25.60
2022-11-13T20:14:16.368Z,26.17
2022-11-13T20:17:07.221Z,25.48
2022-11-13T20:19:58.170Z,28.65
2022-11-13T20:22:49.299Z,39.40
2022-11-13T20:25:40.286Z,37.95
2022-11-13T20:28:31.757Z,38.60
2022-11-13T20:31:24.396Z,30.35
2022-11-13T20:34:15.445Z,31.33
2022-11-13T20:37:06.485Z,32.67
2022-11-13T20:39:57.341Z,29.00
2022-11-13T20:42:48.122Z,29.15
2022-11-13T20:45:39.062Z,30.02
2022-11-13T20:48:30.899Z,25.88
2022-11-13T20:51:24.202Z,29.23
2022-11-13T20:54:14.924Z,29.48
2022-11-13T20:57:06.049Z,27.73
2022-11-13T20:59:58.077Z,25.83
2022-11-13T21:02:49.973Z,21.05
2022-11-13T21:05:41.569Z,22.42
2022-11-13T21:08:33.005Z,22.63
2022-11-13T21:11:25.105Z,25.45
2022-11-13T21:14:16.071Z,21.88
2022-11-13T21:17:06.873Z,23.42
2022-11-13T21:19:57.993Z,22.23
2022-11-13T21:22:49.206Z,19.83
2022-11-13T21:25:40.525Z,13.75
2022-11-13T21:28:33.714Z,11.70
2022-11-13T21:31:25.093Z,12.02
2022-11-13T21:34:16.164Z,13.35
2022-11-13T21:37:07.493Z,16.30
2022-11-13T21:39:59.029Z,17.55
2022-11-13T21:42:50.084Z,19.05
2022-11-13T21:45:41.117Z,21.08
2022-11-13T21:48:33.500Z,23.80
2022-11-13T21:51:24.549Z,22.83
2022-11-13T21:54:15.350Z,19.38
2022-11-13T21:57:06.958Z,19.75
2022-11-13T21:59:58.002Z,20.45
2022-11-13T22:02:48.655Z,20.38
2022-11-13T22:05:39.869Z,19.92
2022-11-13T22:08:31.416Z,19.83
2022-11-13T22:11:23.170Z,18.08
2022-11-13T22:14:14.789Z,17.48
2022-11-13T22:17:05.798Z,17.05
2022-11-13T22:19:56.814Z,15.70
2022-11-13T22:22:47.640Z,12.60
2022-11-13T22:25:38.551Z,15.90
2022-11-13T22:28:30.417Z,15.75
2022-11-13T22:31:24.904Z,14.27
2022-11-13T22:34:16.147Z,16.05
2022-11-13T22:37:07.084Z,14.50
2022-11-13T22:39:58.112Z,12.45
2022-11-13T22:42:49.321Z,11.55
2022-11-13T22:45:40.225Z,12.15
2022-11-13T22:48:32.530Z,11.75
2022-11-13T22:51:25.288Z,10.77
2022-11-13T22:54:16.168Z,12.75
2022-11-13T22:57:07.215Z,9.88
2022-11-13T22:59:58.130Z,10.68
2022-11-13T23:02:49.096Z,10.18
2022-11-13T23:05:40.839Z,16.45
2022-11-13T23:08:37.485Z,10.68
2022-11-13T23:11:30.609Z,8.02
2022-11-13T23:14:21.488Z,6.80
2022-11-13T23:17:12.514Z,8.98
2022-11-13T23:20:04.085Z,6.93
2022-11-13T23:22:55.533Z,9.20
2022-11-13T23:25:46.742Z,9.43
2022-11-13T23:28:38.021Z,7.72
2022-11-13T23:31:29.142Z,8.40
2022-11-13T23:34:38.445Z,8.80
2022-11-13T23:37:31.059Z,8.02
2022-11-13T23:40:22.770Z,10.00
2022-11-13T23:43:13.896Z,11.70
2022-11-13T23:46:05.168Z,10.50
2022-11-13T23:48:56.145Z,10.68
2022-11-13T23:51:46.771Z,11.10
2022-11-13T23:54:37.749Z,9.68
2022-11-13T23:57:29.446Z,8.57
